sensor_id;sensor_type;location;lat;lon;timestamp;P1;durP1;ratioP1;P2;durP2;ratioP2
10009;SDS011;5044;48.652;9.250;2023-05-09T00:02:20;12.65;;;10.00;;
10009;SDS011;5044;48.652;9.250;2023-05-09T00:04:47;14.82;;;10.25;;
10009;SDS011;5044;48.652;9.250;2023-05-09T00:07:14;11.02;;;8.00;;
10009;SDS011;5044;48.652;9.250;2023-05-09T00:09:41;14.07;;;10.32;;
10009;SDS011;5044;48.652;9.250;2023-05-09T00:12:08;16.67;;;11.52;;
10009;SDS011;5044;48.652;9.250;2023-05-09T00:14:37;22.58;;;12.48;;
10009;SDS011;5044;48.652;9.250;2023-05-09T00:17:04;18.50;;;12.48;;
10009;SDS011;5044;48.652;9.250;2023-05-09T00:19:31;20.23;;;12.55;;
10009;SDS011;5044;48.652;9.250;2023-05-09T00:21:58;17.42;;;12.45;;
10009;SDS011;5044;48.652;9.250;2023-05-09T00:24:25;11.85;;;9.52;;
10009;SDS011;5044;48.652;9.250;2023-05-09T00:26:52;10.82;;;8.45;;
10009;SDS011;5044;48.652;9.250;2023-05-09T00:29:19;9.88;;;7.07;;
10009;SDS011;5044;48.652;9.250;2023-05-09T00:31:47;7.10;;;4.97;;
10009;SDS011;5044;48.652;9.250;2023-05-09T00:34:14;10.98;;;7.60;;
10009;SDS011;5044;48.652;9.250;2023-05-09T00:36:40;12.55;;;9.90;;
10009;SDS011;5044;48.652;9.250;2023-05-09T00:39:07;9.30;;;6.90;;
10009;SDS011;5044;48.652;9.250;2023-05-09T00:41:34;11.30;;;8.55;;
10009;SDS011;5044;48.652;9.250;2023-05-09T00:44:01;14.00;;;10.30;;
10009;SDS011;5044;48.652;9.250;2023-05-09T00:46:28;17.65;;;10.55;;
10009;SDS011;5044;48.652;9.250;2023-05-09T00:48:56;15.73;;;9.75;;
10009;SDS011;5044;48.652;9.250;2023-05-09T00:51:23;11.25;;;8.05;;
10009;SDS011;5044;48.652;9.250;2023-05-09T00:53:50;18.75;;;11.93;;
10009;SDS011;5044;48.652;9.250;2023-05-09T00:56:17;15.50;;;11.65;;
10009;SDS011;5044;48.652;9.250;2023-05-09T00:58:45;22.45;;;13.45;;
10009;SDS011;5044;48.652;9.250;2023-05-09T01:01:12;18.95;;;13.43;;
10009;SDS011;5044;48.652;9.250;2023-05-09T01:03:40;20.25;;;13.02;;
10009;SDS011;5044;48.652;9.250;2023-05-09T01:06:10;17.30;;;12.43;;
10009;SDS011;5044;48.652;9.250;2023-05-09T01:08:43;17.95;;;12.60;;
10009;SDS011;5044;48.652;9.250;2023-05-09T01:11:17;17.48;;;11.85;;
10009;SDS011;5044;48.652;9.250;2023-05-09T01:13:51;13.73;;;10.25;;
10009;SDS011;5044;48.652;9.250;2023-05-09T01:16:25;16.30;;;11.85;;
10009;SDS011;5044;48.652;9.250;2023-05-09T01:18:59;17.40;;;11.75;;
10009;SDS011;5044;48.652;9.250;2023-05-09T01:21:34;18.08;;;12.60;;
10009;SDS011;5044;48.652;9.250;2023-05-09T01:24:21;24.17;;;14.40;;
10009;SDS011;5044;48.652;9.250;2023-05-09T01:27:10;13.70;;;10.15;;
10009;SDS011;5044;48.652;9.250;2023-05-09T01:29:49;28.25;;;19.30;;
10009;SDS011;5044;48.652;9.250;2023-05-09T01:32:21;18.48;;;12.93;;
10009;SDS011;5044;48.652;9.250;2023-05-09T01:34:51;18.63;;;15.05;;
10009;SDS011;5044;48.652;9.250;2023-05-09T01:37:21;23.33;;;13.93;;
10009;SDS011;5044;48.652;9.250;2023-05-09T01:39:53;17.80;;;11.27;;
10009;SDS011;5044;48.652;9.250;2023-05-09T01:42:23;12.05;;;8.93;;
10009;SDS011;5044;48.652;9.250;2023-05-09T01:44:54;14.02;;;9.13;;
10009;SDS011;5044;48.652;9.250;2023-05-09T01:47:23;18.95;;;13.02;;
10009;SDS011;5044;48.652;9.250;2023-05-09T01:49:51;14.73;;;10.90;;
10009;SDS011;5044;48.652;9.250;2023-05-09T01:52:19;12.98;;;9.40;;
10009;SDS011;5044;48.652;9.250;2023-05-09T01:54:47;10.43;;;8.38;;
10009;SDS011;5044;48.652;9.250;2023-05-09T01:57:16;11.73;;;8.15;;
10009;SDS011;5044;48.652;9.250;2023-05-09T01:59:45;9.77;;;7.22;;
10009;SDS011;5044;48.652;9.250;2023-05-09T02:02:15;11.50;;;8.32;;
10009;SDS011;5044;48.652;9.250;2023-05-09T02:04:43;12.20;;;9.52;;
10009;SDS011;5044;48.652;9.250;2023-05-09T02:07:11;19.50;;;11.90;;
10009;SDS011;5044;48.652;9.250;2023-05-09T02:09:38;11.27;;;8.27;;
10009;SDS011;5044;48.652;9.250;2023-05-09T02:12:05;10.02;;;8.10;;
10009;SDS011;5044;48.652;9.250;2023-05-09T02:14:32;11.57;;;7.80;;
10009;SDS011;5044;48.652;9.250;2023-05-09T02:17:00;9.27;;;7.30;;
10009;SDS011;5044;48.652;9.250;2023-05-09T02:19:33;12.45;;;8.98;;
10009;SDS011;5044;48.652;9.250;2023-05-09T02:22:01;10.75;;;7.00;;
10009;SDS011;5044;48.652;9.250;2023-05-09T02:24:29;16.05;;;10.85;;
10009;SDS011;5044;48.652;9.250;2023-05-09T02:26:58;19.38;;;13.07;;
10009;SDS011;5044;48.652;9.250;2023-05-09T02:29:28;14.77;;;12.05;;
10009;SDS011;5044;48.652;9.250;2023-05-09T02:32:04;19.75;;;13.43;;
10009;SDS011;5044;48.652;9.250;2023-05-09T02:34:36;10.90;;;8.55;;
10009;SDS011;5044;48.652;9.250;2023-05-09T02:37:03;19.08;;;11.98;;
10009;SDS011;5044;48.652;9.250;2023-05-09T02:39:30;17.23;;;11.65;;
10009;SDS011;5044;48.652;9.250;2023-05-09T02:42:00;17.35;;;10.90;;
10009;SDS011;5044;48.652;9.250;2023-05-09T02:44:30;9.05;;;7.18;;
10009;SDS011;5044;48.652;9.250;2023-05-09T02:46:57;8.18;;;6.82;;
10009;SDS011;5044;48.652;9.250;2023-05-09T02:49:24;7.22;;;5.50;;
10009;SDS011;5044;48.652;9.250;2023-05-09T02:51:52;11.32;;;7.68;;
10009;SDS011;5044;48.652;9.250;2023-05-09T02:54:19;12.68;;;9.85;;
10009;SDS011;5044;48.652;9.250;2023-05-09T02:56:46;14.40;;;9.88;;
10009;SDS011;5044;48.652;9.250;2023-05-09T02:59:13;8.43;;;6.60;;
10009;SDS011;5044;48.652;9.250;2023-05-09T03:01:40;10.70;;;7.50;;
10009;SDS011;5044;48.652;9.250;2023-05-09T03:04:07;11.45;;;7.35;;
10009;SDS011;5044;48.652;9.250;2023-05-09T03:06:34;10.10;;;7.53;;
10009;SDS011;5044;48.652;9.250;2023-05-09T03:09:02;10.90;;;7.65;;
10009;SDS011;5044;48.652;9.250;2023-05-09T03:11:29;11.55;;;8.52;;
10009;SDS011;5044;48.652;9.250;2023-05-09T03:13:56;11.88;;;8.10;;
10009;SDS011;5044;48.652;9.250;2023-05-09T03:16:23;8.98;;;6.82;;
10009;SDS011;5044;48.652;9.250;2023-05-09T03:18:50;11.55;;;6.97;;
10009;SDS011;5044;48.652;9.250;2023-05-09T03:21:17;11.55;;;8.60;;
10009;SDS011;5044;48.652;9.250;2023-05-09T03:23:43;9.00;;;7.18;;
10009;SDS011;5044;48.652;9.250;2023-05-09T03:26:11;7.90;;;6.57;;
10009;SDS011;5044;48.652;9.250;2023-05-09T03:28:39;9.88;;;7.60;;
10009;SDS011;5044;48.652;9.250;2023-05-09T03:31:05;18.17;;;7.45;;
10009;SDS011;5044;48.652;9.250;2023-05-09T03:33:32;13.57;;;5.78;;
10009;SDS011;5044;48.652;9.250;2023-05-09T03:35:59;19.33;;;7.35;;
10009;SDS011;5044;48.652;9.250;2023-05-09T03:38:26;9.10;;;6.20;;
10009;SDS011;5044;48.652;9.250;2023-05-09T03:40:53;6.60;;;5.45;;
10009;SDS011;5044;48.652;9.250;2023-05-09T03:43:21;13.40;;;6.38;;
10009;SDS011;5044;48.652;9.250;2023-05-09T03:45:48;6.18;;;5.13;;
10009;SDS011;5044;48.652;9.250;2023-05-09T03:48:14;7.40;;;5.60;;
10009;SDS011;5044;48.652;9.250;2023-05-09T03:50:41;13.82;;;9.35;;
10009;SDS011;5044;48.652;9.250;2023-05-09T03:53:08;16.67;;;10.68;;
10009;SDS011;5044;48.652;9.250;2023-05-09T03:55:35;16.67;;;10.35;;
10009;SDS011;5044;48.652;9.250;2023-05-09T03:58:02;17.13;;;11.05;;
10009;SDS011;5044;48.652;9.250;2023-05-09T04:00:30;15.80;;;10.75;;
10009;SDS011;5044;48.652;9.250;2023-05-09T04:02:57;15.00;;;11.52;;
10009;SDS011;5044;48.652;9.250;2023-05-09T04:05:24;17.27;;;10.93;;
10009;SDS011;5044;48.652;9.250;2023-05-09T04:07:51;17.65;;;9.93;;
10009;SDS011;5044;48.652;9.250;2023-05-09T04:10:18;13.45;;;9.32;;
10009;SDS011;5044;48.652;9.250;2023-05-09T04:12:44;15.23;;;9.73;;
10009;SDS011;5044;48.652;9.250;2023-05-09T04:15:11;17.52;;;12.13;;
10009;SDS011;5044;48.652;9.250;2023-05-09T04:17:39;18.00;;;11.73;;
10009;SDS011;5044;48.652;9.250;2023-05-09T04:20:07;14.45;;;9.77;;
10009;SDS011;5044;48.652;9.250;2023-05-09T04:22:35;14.68;;;10.65;;
10009;SDS011;5044;48.652;9.250;2023-05-09T04:25:02;15.25;;;10.88;;
10009;SDS011;5044;48.652;9.250;2023-05-09T04:27:29;18.27;;;11.73;;
10009;SDS011;5044;48.652;9.250;2023-05-09T04:29:56;17.25;;;11.40;;
10009;SDS011;5044;48.652;9.250;2023-05-09T04:32:22;9.70;;;6.32;;
10009;SDS011;5044;48.652;9.250;2023-05-09T04:34:51;9.40;;;6.53;;
10009;SDS011;5044;48.652;9.250;2023-05-09T04:37:17;12.63;;;8.75;;
10009;SDS011;5044;48.652;9.250;2023-05-09T04:39:44;12.70;;;8.70;;
10009;SDS011;5044;48.652;9.250;2023-05-09T04:42:11;14.93;;;9.20;;
10009;SDS011;5044;48.652;9.250;2023-05-09T04:44:38;8.75;;;6.82;;
10009;SDS011;5044;48.652;9.250;2023-05-09T04:47:05;12.98;;;8.95;;
10009;SDS011;5044;48.652;9.250;2023-05-09T04:49:31;13.07;;;8.82;;
10009;SDS011;5044;48.652;9.250;2023-05-09T04:51:59;10.23;;;7.88;;
10009;SDS011;5044;48.652;9.250;2023-05-09T04:54:26;11.02;;;7.65;;
10009;SDS011;5044;48.652;9.250;2023-05-09T04:56:53;12.07;;;7.47;;
10009;SDS011;5044;48.652;9.250;2023-05-09T04:59:20;8.15;;;6.20;;
10009;SDS011;5044;48.652;9.250;2023-05-09T05:01:47;14.07;;;6.57;;
10009;SDS011;5044;48.652;9.250;2023-05-09T05:04:13;9.73;;;5.35;;
10009;SDS011;5044;48.652;9.250;2023-05-09T05:06:40;11.90;;;6.03;;
10009;SDS011;5044;48.652;9.250;2023-05-09T05:09:08;6.70;;;4.97;;
10009;SDS011;5044;48.652;9.250;2023-05-09T05:11:35;22.80;;;5.47;;
10009;SDS011;5044;48.652;9.250;2023-05-09T05:14:02;12.75;;;4.38;;
10009;SDS011;5044;48.652;9.250;2023-05-09T05:16:29;16.80;;;5.50;;
10009;SDS011;5044;48.652;9.250;2023-05-09T05:18:55;6.90;;;4.55;;
10009;SDS011;5044;48.652;9.250;2023-05-09T05:21:22;13.57;;;5.03;;
10009;SDS011;5044;48.652;9.250;2023-05-09T05:23:49;16.60;;;4.30;;
10009;SDS011;5044;48.652;9.250;2023-05-09T05:26:17;26.35;;;4.90;;
10009;SDS011;5044;48.652;9.250;2023-05-09T05:28:45;6.25;;;5.00;;
10009;SDS011;5044;48.652;9.250;2023-05-09T05:31:11;20.55;;;6.18;;
10009;SDS011;5044;48.652;9.250;2023-05-09T05:33:38;25.23;;;4.45;;
10009;SDS011;5044;48.652;9.250;2023-05-09T05:36:05;14.48;;;4.97;;
10009;SDS011;5044;48.652;9.250;2023-05-09T05:38:32;23.45;;;4.68;;
10009;SDS011;5044;48.652;9.250;2023-05-09T05:40:59;16.80;;;4.05;;
10009;SDS011;5044;48.652;9.250;2023-05-09T05:43:27;8.65;;;3.63;;
10009;SDS011;5044;48.652;9.250;2023-05-09T05:45:54;5.10;;;3.88;;
10009;SDS011;5044;48.652;9.250;2023-05-09T05:48:21;6.00;;;4.47;;
10009;SDS011;5044;48.652;9.250;2023-05-09T05:50:48;4.55;;;3.67;;
10009;SDS011;5044;48.652;9.250;2023-05-09T05:53:15;8.60;;;3.42;;
10009;SDS011;5044;48.652;9.250;2023-05-09T05:55:41;19.85;;;4.53;;
10009;SDS011;5044;48.652;9.250;2023-05-09T05:58:09;8.57;;;4.43;;
10009;SDS011;5044;48.652;9.250;2023-05-09T06:00:38;6.53;;;4.70;;
10009;SDS011;5044;48.652;9.250;2023-05-09T06:03:05;10.68;;;5.30;;
10009;SDS011;5044;48.652;9.250;2023-05-09T06:05:32;23.80;;;6.80;;
10009;SDS011;5044;48.652;9.250;2023-05-09T06:07:59;13.93;;;6.72;;
10009;SDS011;5044;48.652;9.250;2023-05-09T06:10:26;7.55;;;6.20;;
10009;SDS011;5044;48.652;9.250;2023-05-09T06:12:53;10.95;;;7.10;;
10009;SDS011;5044;48.652;9.250;2023-05-09T06:15:19;12.43;;;8.55;;
10009;SDS011;5044;48.652;9.250;2023-05-09T06:17:48;9.77;;;7.43;;
10009;SDS011;5044;48.652;9.250;2023-05-09T06:20:15;11.23;;;8.43;;
10009;SDS011;5044;48.652;9.250;2023-05-09T06:22:41;12.40;;;9.23;;
10009;SDS011;5044;48.652;9.250;2023-05-09T06:25:08;15.18;;;9.15;;
10009;SDS011;5044;48.652;9.250;2023-05-09T06:27:35;12.88;;;9.52;;
10009;SDS011;5044;48.652;9.250;2023-05-09T06:30:03;12.35;;;8.90;;
10009;SDS011;5044;48.652;9.250;2023-05-09T06:32:30;11.68;;;8.80;;
10009;SDS011;5044;48.652;9.250;2023-05-09T06:34:58;12.98;;;9.25;;
10009;SDS011;5044;48.652;9.250;2023-05-09T06:37:25;13.20;;;9.70;;
10009;SDS011;5044;48.652;9.250;2023-05-09T06:39:52;12.52;;;9.68;;
10009;SDS011;5044;48.652;9.250;2023-05-09T06:42:19;19.08;;;11.80;;
10009;SDS011;5044;48.652;9.250;2023-05-09T06:44:46;13.23;;;10.15;;
10009;SDS011;5044;48.652;9.250;2023-05-09T06:47:13;17.42;;;12.45;;
10009;SDS011;5044;48.652;9.250;2023-05-09T06:49:40;15.35;;;10.55;;
10009;SDS011;5044;48.652;9.250;2023-05-09T06:52:08;16.85;;;11.77;;
10009;SDS011;5044;48.652;9.250;2023-05-09T06:54:36;15.18;;;10.10;;
10009;SDS011;5044;48.652;9.250;2023-05-09T06:57:03;16.30;;;11.90;;
10009;SDS011;5044;48.652;9.250;2023-05-09T06:59:30;15.80;;;11.43;;
10009;SDS011;5044;48.652;9.250;2023-05-09T07:01:57;15.98;;;11.75;;
10009;SDS011;5044;48.652;9.250;2023-05-09T07:04:24;16.70;;;11.50;;
10009;SDS011;5044;48.652;9.250;2023-05-09T07:06:51;15.55;;;11.30;;
10009;SDS011;5044;48.652;9.250;2023-05-09T07:09:19;17.33;;;11.23;;
10009;SDS011;5044;48.652;9.250;2023-05-09T07:11:47;15.00;;;11.18;;
10009;SDS011;5044;48.652;9.250;2023-05-09T07:14:14;21.77;;;11.75;;
10009;SDS011;5044;48.652;9.250;2023-05-09T07:16:41;16.60;;;11.80;;
10009;SDS011;5044;48.652;9.250;2023-05-09T07:19:08;19.13;;;11.85;;
10009;SDS011;5044;48.652;9.250;2023-05-09T07:21:35;17.33;;;13.02;;
10009;SDS011;5044;48.652;9.250;2023-05-09T07:24:01;16.90;;;11.85;;
10009;SDS011;5044;48.652;9.250;2023-05-09T07:26:30;15.52;;;12.05;;
10009;SDS011;5044;48.652;9.250;2023-05-09T07:28:56;17.45;;;10.65;;
10009;SDS011;5044;48.652;9.250;2023-05-09T07:31:23;14.40;;;11.48;;
10009;SDS011;5044;48.652;9.250;2023-05-09T07:33:50;13.77;;;11.07;;
10009;SDS011;5044;48.652;9.250;2023-05-09T07:36:17;14.13;;;11.43;;
10009;SDS011;5044;48.652;9.250;2023-05-09T07:38:44;17.15;;;11.77;;
10009;SDS011;5044;48.652;9.250;2023-05-09T07:41:11;15.95;;;12.30;;
10009;SDS011;5044;48.652;9.250;2023-05-09T07:43:40;21.08;;;11.82;;
10009;SDS011;5044;48.652;9.250;2023-05-09T07:46:06;14.57;;;10.70;;
10009;SDS011;5044;48.652;9.250;2023-05-09T07:48:33;16.42;;;11.70;;
10009;SDS011;5044;48.652;9.250;2023-05-09T07:51:00;17.27;;;11.50;;
10009;SDS011;5044;48.652;9.250;2023-05-09T07:53:27;12.48;;;10.05;;
10009;SDS011;5044;48.652;9.250;2023-05-09T07:55:54;17.88;;;11.60;;
10009;SDS011;5044;48.652;9.250;2023-05-09T07:58:22;13.93;;;9.85;;
10009;SDS011;5044;48.652;9.250;2023-05-09T08:00:50;14.63;;;10.57;;
10009;SDS011;5044;48.652;9.250;2023-05-09T08:03:20;14.98;;;10.07;;
10009;SDS011;5044;48.652;9.250;2023-05-09T08:05:47;16.75;;;10.38;;
10009;SDS011;5044;48.652;9.250;2023-05-09T08:08:13;15.30;;;11.10;;
10009;SDS011;5044;48.652;9.250;2023-05-09T08:10:40;12.88;;;10.10;;
10009;SDS011;5044;48.652;9.250;2023-05-09T08:13:07;11.75;;;9.50;;
10009;SDS011;5044;48.652;9.250;2023-05-09T08:15:34;16.42;;;10.85;;
10009;SDS011;5044;48.652;9.250;2023-05-09T08:18:02;14.45;;;10.65;;
10009;SDS011;5044;48.652;9.250;2023-05-09T08:20:30;11.82;;;9.32;;
10009;SDS011;5044;48.652;9.250;2023-05-09T08:22:58;11.40;;;8.77;;
10009;SDS011;5044;48.652;9.250;2023-05-09T08:25:25;11.10;;;9.13;;
10009;SDS011;5044;48.652;9.250;2023-05-09T08:27:52;11.30;;;7.78;;
10009;SDS011;5044;48.652;9.250;2023-05-09T08:30:18;10.27;;;8.23;;
10009;SDS011;5044;48.652;9.250;2023-05-09T08:32:46;11.38;;;8.80;;
10009;SDS011;5044;48.652;9.250;2023-05-09T08:35:14;11.85;;;9.88;;
10009;SDS011;5044;48.652;9.250;2023-05-09T08:37:41;9.55;;;8.07;;
10009;SDS011;5044;48.652;9.250;2023-05-09T08:40:08;11.25;;;8.23;;
10009;SDS011;5044;48.652;9.250;2023-05-09T08:42:36;9.85;;;6.38;;
10009;SDS011;5044;48.652;9.250;2023-05-09T08:45:07;9.82;;;8.50;;
10009;SDS011;5044;48.652;9.250;2023-05-09T08:47:35;11.13;;;8.98;;
10009;SDS011;5044;48.652;9.250;2023-05-09T08:50:03;11.27;;;9.55;;
10009;SDS011;5044;48.652;9.250;2023-05-09T08:52:33;10.55;;;8.38;;
10009;SDS011;5044;48.652;9.250;2023-05-09T08:55:00;11.65;;;9.48;;
10009;SDS011;5044;48.652;9.250;2023-05-09T08:57:28;12.80;;;10.02;;
10009;SDS011;5044;48.652;9.250;2023-05-09T08:59:59;10.88;;;7.93;;
10009;SDS011;5044;48.652;9.250;2023-05-09T09:02:26;11.63;;;8.23;;
10009;SDS011;5044;48.652;9.250;2023-05-09T09:04:53;12.63;;;10.57;;
10009;SDS011;5044;48.652;9.250;2023-05-09T09:07:20;9.82;;;8.35;;
10009;SDS011;5044;48.652;9.250;2023-05-09T09:09:50;10.68;;;7.95;;
10009;SDS011;5044;48.652;9.250;2023-05-09T09:12:19;10.57;;;9.23;;
10009;SDS011;5044;48.652;9.250;2023-05-09T09:14:48;8.65;;;7.47;;
10009;SDS011;5044;48.652;9.250;2023-05-09T09:17:20;13.10;;;10.82;;
10009;SDS011;5044;48.652;9.250;2023-05-09T09:19:52;13.80;;;10.52;;
10009;SDS011;5044;48.652;9.250;2023-05-09T09:22:22;12.63;;;9.98;;
10009;SDS011;5044;48.652;9.250;2023-05-09T09:24:51;12.75;;;9.80;;
10009;SDS011;5044;48.652;9.250;2023-05-09T09:27:18;12.48;;;8.77;;
10009;SDS011;5044;48.652;9.250;2023-05-09T09:29:45;11.70;;;8.73;;
10009;SDS011;5044;48.652;9.250;2023-05-09T09:32:12;12.57;;;8.75;;
10009;SDS011;5044;48.652;9.250;2023-05-09T09:34:39;10.85;;;8.52;;
10009;SDS011;5044;48.652;9.250;2023-05-09T09:37:06;9.45;;;8.10;;
10009;SDS011;5044;48.652;9.250;2023-05-09T09:39:33;10.52;;;8.52;;
10009;SDS011;5044;48.652;9.250;2023-05-09T09:42:09;9.13;;;8.00;;
10009;SDS011;5044;48.652;9.250;2023-05-09T09:44:37;9.95;;;8.68;;
10009;SDS011;5044;48.652;9.250;2023-05-09T09:47:04;12.52;;;7.45;;
10009;SDS011;5044;48.652;9.250;2023-05-09T09:49:35;13.35;;;8.07;;
10009;SDS011;5044;48.652;9.250;2023-05-09T09:52:02;31.85;;;10.48;;
10009;SDS011;5044;48.652;9.250;2023-05-09T09:54:29;12.13;;;8.63;;
10009;SDS011;5044;48.652;9.250;2023-05-09T09:56:57;15.18;;;7.03;;
10009;SDS011;5044;48.652;9.250;2023-05-09T09:59:25;9.63;;;7.13;;
10009;SDS011;5044;48.652;9.250;2023-05-09T10:01:56;7.43;;;6.57;;
10009;SDS011;5044;48.652;9.250;2023-05-09T10:04:25;8.88;;;6.05;;
10009;SDS011;5044;48.652;9.250;2023-05-09T10:06:54;8.35;;;6.43;;
10009;SDS011;5044;48.652;9.250;2023-05-09T10:09:22;13.23;;;7.20;;
10009;SDS011;5044;48.652;9.250;2023-05-09T10:11:49;13.13;;;7.03;;
10009;SDS011;5044;48.652;9.250;2023-05-09T10:14:17;7.97;;;5.85;;
10009;SDS011;5044;48.652;9.250;2023-05-09T10:16:48;9.07;;;6.53;;
10009;SDS011;5044;48.652;9.250;2023-05-09T10:19:17;12.40;;;7.38;;
10009;SDS011;5044;48.652;9.250;2023-05-09T10:21:50;8.55;;;6.32;;
10009;SDS011;5044;48.652;9.250;2023-05-09T10:24:20;7.60;;;5.75;;
10009;SDS011;5044;48.652;9.250;2023-05-09T10:26:50;6.90;;;5.65;;
10009;SDS011;5044;48.652;9.250;2023-05-09T10:29:20;6.27;;;4.60;;
10009;SDS011;5044;48.652;9.250;2023-05-09T10:31:52;5.88;;;4.18;;
10009;SDS011;5044;48.652;9.250;2023-05-09T10:34:24;6.32;;;4.10;;
10009;SDS011;5044;48.652;9.250;2023-05-09T10:36:52;6.60;;;4.75;;
10009;SDS011;5044;48.652;9.250;2023-05-09T10:39:21;6.43;;;4.70;;
10009;SDS011;5044;48.652;9.250;2023-05-09T10:41:48;6.82;;;4.68;;
10009;SDS011;5044;48.652;9.250;2023-05-09T10:44:16;5.35;;;4.28;;
10009;SDS011;5044;48.652;9.250;2023-05-09T10:46:43;5.13;;;4.45;;
10009;SDS011;5044;48.652;9.250;2023-05-09T10:49:12;5.93;;;4.30;;
10009;SDS011;5044;48.652;9.250;2023-05-09T10:51:39;7.53;;;4.07;;
10009;SDS011;5044;48.652;9.250;2023-05-09T10:54:12;3.97;;;3.55;;
10009;SDS011;5044;48.652;9.250;2023-05-09T10:56:40;4.05;;;3.25;;
10009;SDS011;5044;48.652;9.250;2023-05-09T10:59:21;4.97;;;4.22;;
10009;SDS011;5044;48.652;9.250;2023-05-09T11:01:59;4.65;;;4.10;;
10009;SDS011;5044;48.652;9.250;2023-05-09T11:04:28;5.93;;;3.45;;
10009;SDS011;5044;48.652;9.250;2023-05-09T11:06:57;4.00;;;3.65;;
10009;SDS011;5044;48.652;9.250;2023-05-09T11:09:25;3.38;;;2.90;;
10009;SDS011;5044;48.652;9.250;2023-05-09T11:11:54;3.08;;;2.45;;
10009;SDS011;5044;48.652;9.250;2023-05-09T11:14:29;3.30;;;3.00;;
10009;SDS011;5044;48.652;9.250;2023-05-09T11:16:57;5.88;;;2.90;;
10009;SDS011;5044;48.652;9.250;2023-05-09T11:22:25;3.28;;;2.92;;
10009;SDS011;5044;48.652;9.250;2023-05-09T11:24:58;4.40;;;2.75;;
10009;SDS011;5044;48.652;9.250;2023-05-09T11:27:32;8.68;;;2.90;;
10009;SDS011;5044;48.652;9.250;2023-05-09T11:30:03;3.05;;;2.45;;
10009;SDS011;5044;48.652;9.250;2023-05-09T11:32:32;3.63;;;2.42;;
10009;SDS011;5044;48.652;9.250;2023-05-09T11:35:07;2.08;;;1.77;;
10009;SDS011;5044;48.652;9.250;2023-05-09T11:37:38;1.77;;;1.48;;
10009;SDS011;5044;48.652;9.250;2023-05-09T11:40:11;1.73;;;1.30;;
10009;SDS011;5044;48.652;9.250;2023-05-09T11:42:40;1.65;;;1.40;;
10009;SDS011;5044;48.652;9.250;2023-05-09T11:45:09;5.15;;;1.30;;
10009;SDS011;5044;48.652;9.250;2023-05-09T11:47:36;1.40;;;1.30;;
10009;SDS011;5044;48.652;9.250;2023-05-09T11:50:04;3.28;;;1.10;;
10009;SDS011;5044;48.652;9.250;2023-05-09T11:52:35;1.20;;;1.02;;
10009;SDS011;5044;48.652;9.250;2023-05-09T11:55:04;2.35;;;1.10;;
